Time;durP1;ratioP1;P1;durP2;ratioP2;P2;SDS_P1;SDS_P2;PMS_P1;PMS_P2;Temp;Humidity;BMP_temperature;BMP_pressure;BME280_temperature;BME280_humidity;BME280_pressure;Samples;Min_cycle;Max_cycle;Signal;HPM_P1;HPM_P2
2022/08/02 00:01:48;;;;;;;;;;;20.60;49.80;;;;;;4984697;28;19914;-94
2022/08/02 00:04:19;;;;;;;;;;;20.60;49.80;;;;;;4979511;28;19992;-95
2022/08/02 00:06:44;;;;;;;;;;;20.60;49.90;;;;;;4954079;28;19914;-94
2022/08/02 00:09:14;;;;;;;;;;;20.60;49.90;;;;;;4964304;28;20054;-95
2022/08/02 00:11:47;;;;;;;;;;;20.60;49.80;;;;;;4970680;28;19922;-94
2022/08/02 00:14:15;;;;;;;;;;;20.50;49.80;;;;;;4947234;28;20001;-94
2022/08/02 00:16:43;;;;;;;;;;;20.50;49.80;;;;;;4949242;28;19925;-95
2022/08/02 00:19:12;;;;;;;;;;;20.50;49.90;;;;;;4953024;29;19919;-94
2022/08/02 00:21:52;;;;;;;;;;;20.50;50.10;;;;;;4977097;28;19915;-95
2022/08/02 00:24:23;;;;;;;;;;;20.50;50.00;;;;;;4950268;29;19914;-95
2022/08/02 00:26:49;;;;;;;;;;;20.50;50.20;;;;;;4950998;29;19919;-95
2022/08/02 00:29:17;;;;;;;;;;;20.60;50.20;;;;;;4949779;29;19970;-94
2022/08/02 00:31:46;;;;;;;;;;;20.70;50.20;;;;;;4948130;28;19932;-95
2022/08/02 00:34:15;;;;;;;;;;;20.80;50.30;;;;;;4951368;29;19925;-94
2022/08/02 00:36:44;;;;;;;;;;;20.80;50.20;;;;;;4974432;28;19933;-95
2022/08/02 00:39:17;;;;;;;;;;;20.80;50.10;;;;;;4948840;28;20058;-94
2022/08/02 00:41:47;;;;;;;;;;;20.90;50.20;;;;;;4952260;28;19921;-95
2022/08/02 00:44:16;;;;;;;;;;;20.90;50.00;;;;;;4966069;28;19914;-95
2022/08/02 00:46:45;;;;;;;;;;;20.90;50.10;;;;;;4973413;28;19920;-94
2022/08/02 00:49:11;;;;;;;;;;;20.90;50.30;;;;;;4995752;28;19949;-94
2022/08/02 00:51:40;;;;;;;;;;;21.00;50.20;;;;;;4981477;28;19964;-95
2022/08/02 00:54:18;;;;;;;;;;;21.00;49.90;;;;;;4951959;28;19942;-95
2022/08/02 00:56:50;;;;;;;;;;;20.90;50.00;;;;;;4970715;28;20351;-96
2022/08/02 00:59:19;;;;;;;;;;;20.80;49.90;;;;;;4963617;29;19919;-94
2022/08/02 01:01:45;;;;;;;;;;;20.70;49.90;;;;;;4940525;29;20011;-95
2022/08/02 01:04:17;;;;;;;;;;;20.70;50.10;;;;;;4946037;29;19934;-95
2022/08/02 01:06:49;;;;;;;;;;;20.60;50.10;;;;;;4934647;29;19925;-95
2022/08/02 01:09:15;;;;;;;;;;;20.50;50.30;;;;;;4949095;29;19919;-96
2022/08/02 01:11:40;;;;;;;;;;;20.50;50.50;;;;;;4949540;29;20441;-94
2022/08/02 01:14:09;;;;;;;;;;;20.50;50.60;;;;;;4963614;28;19918;-95
2022/08/02 01:16:38;;;;;;;;;;;20.60;50.50;;;;;;4943769;29;19925;-95
2022/08/02 01:19:19;;;;;;;;;;;20.50;50.60;;;;;;4936602;29;19953;-95
2022/08/02 01:22:06;;;;;;;;;;;20.60;50.50;;;;;;4946610;29;19965;-96
2022/08/02 01:24:43;;;;;;;;;;;20.60;50.50;;;;;;4934263;29;19914;-95
2022/08/02 01:27:47;;;;;;;;;;;20.60;50.60;;;;;;4944132;29;19914;-95
2022/08/02 01:30:28;;;;;;;;;;;;;;;;;;;;;
2022/08/02 01:33:19;;;;;;;;;;;20.30;50.50;;;;;;4987526;28;19958;-94
2022/08/02 01:35:53;;;;;;;;;;;20.30;50.70;;;;;;4981703;28;19990;-96
2022/08/02 01:38:29;;;;;;;;;;;20.20;50.90;;;;;;4967651;28;20476;-95
2022/08/02 01:41:05;;;;;;;;;;;20.30;50.90;;;;;;4972025;28;19981;-95
2022/08/02 01:44:11;;;;;;;;;;;20.30;50.90;;;;;;4974580;28;19918;-94
2022/08/02 01:46:38;;;;;;;;;;;20.30;50.90;;;;;;4915801;29;19919;-93
2022/08/02 01:49:06;;;;;;;;;;;20.10;51.00;;;;;;4964487;28;19960;-93
2022/08/02 01:54:31;;;;;;;;;;;20.00;51.10;;;;;;4986583;28;19921;-92
2022/08/02 01:56:57;;;;;;;;;;;19.90;51.20;;;;;;4986831;28;20322;-93
2022/08/02 01:59:24;;;;;;;;;;;19.80;51.20;;;;;;4968594;28;19910;-95
2022/08/02 02:01:57;;;;;;;;;;;19.70;51.40;;;;;;4969045;28;19918;-94
2022/08/02 02:04:23;;;;;;;;;;;19.70;51.30;;;;;;4968682;28;19972;-94
2022/08/02 02:06:49;;;;;;;;;;;19.70;51.40;;;;;;4986461;28;20374;-93
2022/08/02 02:09:16;;;;;;;;;;;19.60;51.40;;;;;;4969877;28;20248;-94
2022/08/02 02:11:43;;;;;;;;;;;19.60;51.50;;;;;;4972102;28;19922;-95
2022/08/02 02:14:09;;;;;;;;;;;19.50;51.50;;;;;;4970104;28;20034;-94
2022/08/02 02:16:36;;;;;;;;;;;19.50;51.60;;;;;;4969791;28;19918;-94
2022/08/02 02:19:02;;;;;;;;;;;19.50;51.60;;;;;;4970426;28;19910;-94
2022/08/02 02:21:28;;;;;;;;;;;19.50;51.70;;;;;;4973938;28;19909;-94
2022/08/02 02:23:53;;;;;;;;;;;19.50;51.70;;;;;;4977282;28;19910;-93
2022/08/02 02:26:19;;;;;;;;;;;19.40;51.60;;;;;;4973192;28;19949;-94
2022/08/02 02:28:51;;;;;;;;;;;19.40;51.80;;;;;;4972350;28;19954;-94
2022/08/02 02:31:18;;;;;;;;;;;19.40;51.80;;;;;;4972121;28;19922;-93
2022/08/02 02:33:47;;;;;;;;;;;19.40;51.80;;;;;;4972509;28;19902;-94
2022/08/02 02:36:15;;;;;;;;;;;19.30;51.70;;;;;;4991241;28;19937;-94
2022/08/02 02:38:41;;;;;;;;;;;19.30;51.90;;;;;;4980893;28;19926;-94
2022/08/02 02:41:06;;;;;;;;;;;19.40;52.00;;;;;;4992058;28;19918;-93
2022/08/02 02:43:33;;;;;;;;;;;19.50;52.10;;;;;;4987903;28;19922;-93
2022/08/02 02:46:00;;;;;;;;;;;19.60;52.00;;;;;;4990850;28;19914;-93
2022/08/02 02:48:26;;;;;;;;;;;19.60;51.80;;;;;;4991166;28;20701;-93
2022/08/02 02:50:52;;;;;;;;;;;19.50;51.70;;;;;;4993213;28;19960;-93
2022/08/02 02:53:18;;;;;;;;;;;19.40;51.70;;;;;;4990750;28;19969;-92
2022/08/02 02:55:44;;;;;;;;;;;19.30;51.80;;;;;;4991019;28;19898;-93
2022/08/02 02:58:10;;;;;;;;;;;19.30;51.80;;;;;;5007330;28;19997;-94
2022/08/02 03:03:21;;;;;;;;;;;19.20;52.00;;;;;;5003166;28;19947;-93
2022/08/02 03:05:46;;;;;;;;;;;19.10;52.20;;;;;;5002051;28;20052;-93
2022/08/02 03:08:12;;;;;;;;;;;19.00;52.30;;;;;;4973065;28;19922;-93
2022/08/02 03:10:37;;;;;;;;;;;18.90;52.40;;;;;;4970657;28;19918;-94
2022/08/02 03:13:03;;;;;;;;;;;18.80;52.60;;;;;;4968884;28;19973;-92
2022/08/02 03:15:29;;;;;;;;;;;18.80;52.50;;;;;;4988460;28;19934;-92
2022/08/02 03:17:55;;;;;;;;;;;18.80;52.60;;;;;;4983409;28;19918;-93
2022/08/02 03:20:24;;;;;;;;;;;18.80;52.60;;;;;;4985622;28;19914;-93
2022/08/02 03:22:52;;;;;;;;;;;18.80;52.60;;;;;;4970439;28;19918;-94
2022/08/02 03:25:18;;;;;;;;;;;18.70;52.70;;;;;;4968169;28;19933;-94
2022/08/02 03:27:44;;;;;;;;;;;18.70;52.80;;;;;;4985407;28;19911;-93
2022/08/02 03:30:10;;;;;;;;;;;18.70;52.80;;;;;;4969364;28;19922;-94
2022/08/02 03:32:37;;;;;;;;;;;18.70;52.80;;;;;;4988125;28;19918;-93
2022/08/02 03:35:04;;;;;;;;;;;18.80;53.00;;;;;;4967812;28;19918;-93
2022/08/02 03:37:30;;;;;;;;;;;18.80;52.80;;;;;;4969428;28;19910;-94
2022/08/02 03:39:56;;;;;;;;;;;18.80;52.80;;;;;;4992757;28;19918;-93
2022/08/02 03:42:22;;;;;;;;;;;18.80;52.80;;;;;;4989673;28;19914;-93
2022/08/02 03:44:48;;;;;;;;;;;18.80;53.00;;;;;;4984058;28;19946;-95
2022/08/02 03:47:14;;;;;;;;;;;18.90;53.00;;;;;;4985157;28;19914;-94
2022/08/02 03:49:43;;;;;;;;;;;18.90;53.00;;;;;;4965279;28;19918;-94
2022/08/02 03:52:09;;;;;;;;;;;18.90;52.90;;;;;;4966358;28;19933;-94
2022/08/02 03:54:35;;;;;;;;;;;18.90;52.90;;;;;;4969019;28;19917;-94
2022/08/02 03:57:01;;;;;;;;;;;18.90;53.00;;;;;;4976816;28;19937;-93
2022/08/02 03:59:26;;;;;;;;;;;18.80;52.90;;;;;;4966260;28;19918;-94
2022/08/02 04:01:52;;;;;;;;;;;18.80;53.00;;;;;;4974031;28;19910;-95
2022/08/02 04:04:17;;;;;;;;;;;18.90;53.10;;;;;;4986915;28;19906;-94
2022/08/02 04:06:43;;;;;;;;;;;19.10;53.20;;;;;;4979155;28;19914;-93
2022/08/02 04:09:08;;;;;;;;;;;19.20;53.20;;;;;;4975350;28;20385;-93
2022/08/02 04:11:34;;;;;;;;;;;19.20;53.00;;;;;;4966986;28;19921;-94
2022/08/02 04:14:01;;;;;;;;;;;19.10;52.90;;;;;;4967573;28;20378;-94
2022/08/02 04:16:33;;;;;;;;;;;19.00;53.00;;;;;;4961134;28;19914;-94
2022/08/02 04:19:02;;;;;;;;;;;18.90;53.10;;;;;;4970178;28;20009;-93
2022/08/02 04:21:31;;;;;;;;;;;18.80;53.20;;;;;;4973499;28;19953;-94
2022/08/02 04:23:57;;;;;;;;;;;18.90;53.30;;;;;;4964770;28;19919;-93
2022/08/02 04:26:23;;;;;;;;;;;18.90;53.30;;;;;;4983950;28;19941;-94
2022/08/02 04:28:48;;;;;;;;;;;18.80;53.30;;;;;;4969548;28;19938;-94
2022/08/02 04:31:16;;;;;;;;;;;18.70;53.40;;;;;;4984975;28;19961;-94
2022/08/02 04:33:41;;;;;;;;;;;18.70;53.50;;;;;;4985953;28;19973;-94
2022/08/02 04:36:07;;;;;;;;;;;18.60;53.80;;;;;;4971233;28;19914;-94
2022/08/02 04:38:32;;;;;;;;;;;18.70;54.20;;;;;;4972401;28;19925;-94
2022/08/02 04:40:58;;;;;;;;;;;18.80;54.50;;;;;;4973286;28;19942;-91
2022/08/02 04:43:23;;;;;;;;;;;19.00;55.50;;;;;;5000884;28;19921;-94
2022/08/02 04:45:51;;;;;;;;;;;19.30;56.50;;;;;;4991845;28;19918;-94
2022/08/02 04:48:16;;;;;;;;;;;19.70;57.00;;;;;;4990696;28;19910;-95
2022/08/02 04:50:42;;;;;;;;;;;20.10;57.00;;;;;;4975639;28;19915;-94
2022/08/02 04:53:07;;;;;;;;;;;20.30;56.00;;;;;;4989678;28;19910;-92
2022/08/02 04:55:33;;;;;;;;;;;20.50;55.60;;;;;;4993237;28;19914;-94
2022/08/02 04:57:58;;;;;;;;;;;20.80;55.60;;;;;;4982005;28;19910;-94
2022/08/02 05:00:24;;;;;;;;;;;20.90;55.10;;;;;;4980343;28;19953;-95
2022/08/02 05:02:51;;;;;;;;;;;21.00;54.50;;;;;;4995192;28;19917;-94
2022/08/02 05:05:17;;;;;;;;;;;21.00;54.20;;;;;;5014361;28;19918;-93
2022/08/02 05:07:43;;;;;;;;;;;21.20;54.40;;;;;;4978238;28;20073;-93
2022/08/02 05:10:08;;;;;;;;;;;21.50;55.40;;;;;;4978384;28;19932;-95
2022/08/02 05:12:34;;;;;;;;;;;21.90;55.90;;;;;;4992252;28;19914;-94
2022/08/02 05:14:59;;;;;;;;;;;22.30;55.90;;;;;;4995961;28;19906;-96
2022/08/02 05:17:25;;;;;;;;;;;22.80;55.80;;;;;;4998885;28;19920;-94
2022/08/02 05:19:50;;;;;;;;;;;23.30;55.60;;;;;;4974867;28;19902;-93
2022/08/02 05:22:16;;;;;;;;;;;23.80;55.30;;;;;;4974728;28;19910;-94
2022/08/02 05:24:42;;;;;;;;;;;24.40;54.80;;;;;;4990482;28;20355;-95
2022/08/02 05:27:07;;;;;;;;;;;24.90;54.00;;;;;;4979899;28;19910;-94
2022/08/02 05:29:33;;;;;;;;;;;25.50;53.10;;;;;;4974177;28;19944;-95
2022/08/02 05:31:58;;;;;;;;;;;26.00;52.20;;;;;;4965503;29;19927;-94
2022/08/02 05:34:24;;;;;;;;;;;26.40;51.50;;;;;;4965230;29;19921;-94
2022/08/02 05:36:49;;;;;;;;;;;27.00;50.40;;;;;;4956145;28;19914;-93
2022/08/02 05:39:15;;;;;;;;;;;27.40;49.30;;;;;;4968074;28;20351;-93
2022/08/02 05:41:40;;;;;;;;;;;27.80;48.60;;;;;;4967694;28;19915;-94
2022/08/02 05:44:06;;;;;;;;;;;28.30;47.90;;;;;;4968995;28;19978;-94
2022/08/02 05:46:32;;;;;;;;;;;28.80;47.10;;;;;;4966886;28;19921;-94
2022/08/02 05:48:57;;;;;;;;;;;29.30;46.20;;;;;;4966865;28;19921;-94
2022/08/02 05:51:43;;;;;;;;;;;29.80;45.10;;;;;;4967204;28;19918;-94
2022/08/02 05:54:11;;;;;;;;;;;30.20;44.40;;;;;;4947651;28;19918;-94
2022/08/02 05:56:49;;;;;;;;;;;30.70;43.30;;;;;;4972494;28;20004;-93
2022/08/02 05:59:24;;;;;;;;;;;31.10;42.30;;;;;;4988607;28;19957;-94
2022/08/02 06:01:53;;;;;;;;;;;31.60;41.60;;;;;;4979429;28;19914;-93
2022/08/02 06:04:25;;;;;;;;;;;32.00;40.50;;;;;;4966521;28;19926;-94
2022/08/02 06:06:54;;;;;;;;;;;32.40;39.60;;;;;;4982851;28;19910;-94
2022/08/02 06:09:20;;;;;;;;;;;32.70;38.80;;;;;;4966098;28;19952;-94
2022/08/02 06:11:48;;;;;;;;;;;33.00;38.10;;;;;;4990520;28;20369;-93
2022/08/02 06:14:13;;;;;;;;;;;33.30;37.60;;;;;;5002582;28;19929;-93
2022/08/02 06:16:39;;;;;;;;;;;33.70;37.40;;;;;;4993526;28;19914;-94
2022/08/02 06:19:05;;;;;;;;;;;34.10;36.70;;;;;;4967618;28;19942;-93
2022/08/02 06:21:31;;;;;;;;;;;34.40;36.10;;;;;;4965829;28;19918;-94
2022/08/02 06:23:57;;;;;;;;;;;34.80;35.70;;;;;;4966815;28;20321;-94
2022/08/02 06:26:23;;;;;;;;;;;35.10;35.30;;;;;;4966401;28;19921;-94
2022/08/02 06:28:50;;;;;;;;;;;35.50;35.00;;;;;;4965858;28;19918;-93
2022/08/02 06:31:16;;;;;;;;;;;36.00;34.70;;;;;;4967024;28;19924;-94
2022/08/02 06:33:42;;;;;;;;;;;36.40;34.10;;;;;;4982891;28;20258;-93
2022/08/02 06:36:13;;;;;;;;;;;36.80;33.40;;;;;;4953111;28;19918;-94
2022/08/02 06:38:43;;;;;;;;;;;37.20;32.70;;;;;;4981557;28;19990;-94
2022/08/02 06:41:11;;;;;;;;;;;37.30;32.10;;;;;;4984281;28;20009;-94
2022/08/02 06:43:44;;;;;;;;;;;37.60;31.90;;;;;;5001675;28;19920;-93
2022/08/02 06:46:10;;;;;;;;;;;38.00;31.70;;;;;;4982989;28;19937;-94
2022/08/02 06:48:35;;;;;;;;;;;38.30;31.50;;;;;;4965105;28;19914;-94
2022/08/02 06:51:01;;;;;;;;;;;38.60;30.50;;;;;;4981504;28;19917;-92
2022/08/02 06:53:27;;;;;;;;;;;38.80;29.80;;;;;;4984008;28;19921;-93
2022/08/02 06:55:52;;;;;;;;;;;38.90;29.40;;;;;;4975182;28;19937;-92
2022/08/02 06:58:18;;;;;;;;;;;39.00;29.20;;;;;;4963901;28;20042;-93
2022/08/02 07:00:43;;;;;;;;;;;39.10;28.90;;;;;;4980112;28;20359;-93
2022/08/02 07:03:09;;;;;;;;;;;39.30;28.70;;;;;;4963735;28;19922;-93
2022/08/02 07:06:04;;;;;;;;;;;39.50;29.00;;;;;;4964413;28;19918;-94
2022/08/02 07:08:34;;;;;;;;;;;39.90;28.70;;;;;;4954638;28;20389;-93
2022/08/02 07:11:04;;;;;;;;;;;40.30;28.50;;;;;;4962049;28;19922;-94
2022/08/02 07:13:29;;;;;;;;;;;40.50;27.60;;;;;;4962508;28;19921;-94
2022/08/02 07:15:57;;;;;;;;;;;40.70;27.00;;;;;;4962495;28;20397;-94
2022/08/02 07:18:23;;;;;;;;;;;40.80;27.00;;;;;;4942604;29;19965;-94
2022/08/02 07:20:48;;;;;;;;;;;41.20;26.90;;;;;;4943939;29;20438;-93
2022/08/02 07:23:17;;;;;;;;;;;41.30;26.20;;;;;;4961830;28;19938;-93
2022/08/02 07:25:43;;;;;;;;;;;41.30;25.70;;;;;;4962181;28;19961;-93
2022/08/02 07:28:16;;;;;;;;;;;41.40;25.90;;;;;;4980312;28;19918;-95
2022/08/02 07:30:42;;;;;;;;;;;41.60;25.00;;;;;;4965000;28;19964;-94
2022/08/02 07:33:22;;;;;;;;;;;41.60;24.60;;;;;;4980297;28;19910;-93
2022/08/02 07:35:48;;;;;;;;;;;41.70;24.70;;;;;;4962895;28;19918;-95
2022/08/02 07:38:14;;;;;;;;;;;41.80;24.10;;;;;;4979431;28;20411;-94
2022/08/02 07:40:39;;;;;;;;;;;42.10;24.30;;;;;;4962690;28;19985;-93
2022/08/02 07:43:05;;;;;;;;;;;42.40;24.30;;;;;;4962250;28;19914;-95
2022/08/02 07:45:31;;;;;;;;;;;42.70;24.30;;;;;;4980243;28;20401;-95
2022/08/02 07:47:57;;;;;;;;;;;43.00;23.90;;;;;;4978055;28;19965;-94
2022/08/02 07:50:27;;;;;;;;;;;43.20;23.10;;;;;;4979106;28;19937;-93
2022/08/02 07:52:52;;;;;;;;;;;43.10;22.90;;;;;;4978190;28;19929;-94
2022/08/02 07:55:18;;;;;;;;;;;43.20;22.70;;;;;;4980016;28;19914;-94
2022/08/02 07:57:46;;;;;;;;;;;43.30;22.30;;;;;;4961483;28;19968;-92
2022/08/02 08:00:12;;;;;;;;;;;43.50;22.60;;;;;;4960646;28;19922;-94
2022/08/02 08:02:38;;;;;;;;;;;43.80;22.30;;;;;;4961484;28;19918;-95
2022/08/02 08:05:07;;;;;;;;;;;44.00;22.30;;;;;;4962650;28;20000;-93
2022/08/02 08:07:32;;;;;;;;;;;44.10;21.30;;;;;;4990334;28;20028;-94
2022/08/02 08:09:59;;;;;;;;;;;43.80;21.30;;;;;;4980837;28;19932;-93
2022/08/02 08:12:25;;;;;;;;;;;43.90;21.60;;;;;;4986466;28;20354;-94
2022/08/02 08:14:52;;;;;;;;;;;43.90;20.90;;;;;;4961041;28;21208;-94
2022/08/02 08:17:18;;;;;;;;;;;43.70;20.70;;;;;;4989363;28;20016;-95
2022/08/02 08:19:46;;;;;;;;;;;43.60;20.60;;;;;;4980410;28;20533;-93
2022/08/02 08:22:12;;;;;;;;;;;43.60;21.00;;;;;;4980774;28;19916;-94
2022/08/02 08:24:37;;;;;;;;;;;43.60;19.70;;;;;;4980469;28;19981;-94
2022/08/02 08:27:09;;;;;;;;;;;43.30;19.80;;;;;;4988222;28;19910;-93
2022/08/02 08:29:35;;;;;;;;;;;43.20;20.00;;;;;;4966133;28;19929;-93
2022/08/02 08:32:01;;;;;;;;;;;43.20;19.80;;;;;;4979131;28;19913;-94
2022/08/02 08:34:30;;;;;;;;;;;43.10;19.90;;;;;;4967891;28;20270;-93
2022/08/02 08:36:55;;;;;;;;;;;43.10;20.00;;;;;;4979045;28;19977;-93
2022/08/02 08:39:21;;;;;;;;;;;43.20;19.30;;;;;;4977075;28;19992;-94
2022/08/02 08:41:46;;;;;;;;;;;43.30;19.50;;;;;;4976099;28;19925;-95
2022/08/02 08:44:12;;;;;;;;;;;43.30;19.10;;;;;;4961171;28;19945;-94
2022/08/02 08:46:40;;;;;;;;;;;43.10;19.40;;;;;;4983630;28;20310;-94
2022/08/02 08:49:08;;;;;;;;;;;43.20;19.30;;;;;;4979245;28;19948;-93
2022/08/02 08:51:49;;;;;;;;;;;43.10;19.00;;;;;;4960584;28;19918;-93
2022/08/02 08:54:18;;;;;;;;;;;43.00;19.20;;;;;;4961251;28;19917;-93
2022/08/02 08:56:43;;;;;;;;;;;43.00;19.00;;;;;;4984974;28;20409;-94
2022/08/02 08:59:09;;;;;;;;;;;42.90;18.90;;;;;;4961198;28;19914;-93
2022/08/02 09:01:35;;;;;;;;;;;42.90;18.80;;;;;;4977661;28;19918;-93
2022/08/02 09:04:00;;;;;;;;;;;42.90;19.00;;;;;;4959072;28;19925;-93
2022/08/02 09:06:26;;;;;;;;;;;43.00;19.10;;;;;;4963610;28;19922;-93
2022/08/02 09:08:52;;;;;;;;;;;43.10;19.00;;;;;;4984019;28;20290;-94
2022/08/02 09:11:18;;;;;;;;;;;43.30;18.70;;;;;;4978158;28;20255;-94
2022/08/02 09:13:48;;;;;;;;;;;43.50;18.70;;;;;;4960503;28;20282;-95
2022/08/02 09:16:14;;;;;;;;;;;43.80;18.90;;;;;;4960362;28;20434;-93
2022/08/02 09:18:47;;;;;;;;;;;44.30;18.80;;;;;;4981426;28;19914;-93
2022/08/02 09:21:13;;;;;;;;;;;44.60;18.60;;;;;;4976965;28;19926;-93
2022/08/02 09:23:40;;;;;;;;;;;44.70;18.60;;;;;;4960046;28;19910;-93
2022/08/02 09:26:10;;;;;;;;;;;44.80;18.30;;;;;;4977262;28;20655;-94
2022/08/02 09:28:36;;;;;;;;;;;44.80;18.70;;;;;;4964155;28;19914;-93
2022/08/02 09:31:06;;;;;;;;;;;45.10;18.80;;;;;;4960546;28;19919;-94
2022/08/02 09:33:32;;;;;;;;;;;45.30;18.50;;;;;;4959742;28;19898;-94
2022/08/02 09:36:05;;;;;;;;;;;45.40;18.20;;;;;;4962236;28;20299;-93
2022/08/02 09:38:32;;;;;;;;;;;45.30;17.90;;;;;;4975991;28;19949;-93
2022/08/02 09:40:57;;;;;;;;;;;45.40;18.10;;;;;;4977234;28;20355;-95
2022/08/02 09:43:40;;;;;;;;;;;45.70;18.40;;;;;;4946257;28;19917;-94
2022/08/02 09:46:18;;;;;;;;;;;45.90;18.20;;;;;;4963419;28;20020;-94
2022/08/02 09:48:54;;;;;;;;;;;46.20;18.10;;;;;;4979638;28;19910;-94
2022/08/02 09:51:23;;;;;;;;;;;46.30;17.80;;;;;;4963856;28;20306;-95
2022/08/02 09:53:52;;;;;;;;;;;46.40;17.30;;;;;;4964333;28;20354;-93
2022/08/02 09:56:18;;;;;;;;;;;46.20;17.20;;;;;;4965157;28;20448;-94
2022/08/02 09:58:44;;;;;;;;;;;46.10;17.30;;;;;;4985760;28;19910;-94
2022/08/02 10:01:13;;;;;;;;;;;46.00;17.30;;;;;;4980714;28;20735;-93
2022/08/02 10:03:52;;;;;;;;;;;46.10;17.30;;;;;;4965574;28;19918;-93
2022/08/02 10:06:17;;;;;;;;;;;46.30;17.50;;;;;;4980434;28;19925;-94
2022/08/02 10:08:43;;;;;;;;;;;46.50;17.20;;;;;;4980669;28;19911;-94
2022/08/02 10:11:14;;;;;;;;;;;46.50;17.00;;;;;;4984504;28;19922;-93
2022/08/02 10:13:40;;;;;;;;;;;46.30;17.00;;;;;;4980515;28;19929;-93
2022/08/02 10:16:06;;;;;;;;;;;46.30;17.40;;;;;;4983360;28;19914;-94
2022/08/02 10:18:32;;;;;;;;;;;46.50;17.60;;;;;;4980762;28;19942;-93
2022/08/02 10:21:00;;;;;;;;;;;46.50;17.30;;;;;;4967146;28;19910;-93
2022/08/02 10:23:26;;;;;;;;;;;46.50;17.20;;;;;;4967124;28;20057;-93
2022/08/02 10:25:52;;;;;;;;;;;46.30;17.20;;;;;;4982464;28;19914;-93
2022/08/02 10:28:48;;;;;;;;;;;46.30;17.20;;;;;;4982832;28;19926;-94
2022/08/02 10:31:14;;;;;;;;;;;46.30;17.40;;;;;;5027956;23;19941;-88
2022/08/02 10:33:41;;;;;;;;;;;46.30;17.00;;;;;;5000614;28;19913;-89
2022/08/02 10:36:08;;;;;;;;;;;46.20;17.20;;;;;;5000513;28;20025;-88
2022/08/02 10:38:35;;;;;;;;;;;46.20;17.20;;;;;;5010124;28;19921;-88
2022/08/02 10:41:01;;;;;;;;;;;46.20;17.30;;;;;;4979032;28;19918;-89
2022/08/02 10:43:30;;;;;;;;;;;46.40;17.50;;;;;;5020603;28;19909;-89
2022/08/02 10:46:15;;;;;;;;;;;46.80;17.60;;;;;;5034149;28;19980;-88
2022/08/02 10:49:06;;;;;;;;;;;47.30;17.60;;;;;;4996918;28;20353;-88
2022/08/02 10:51:50;;;;;;;;;;;47.80;17.30;;;;;;5004412;28;19929;-89
2022/08/02 10:54:20;;;;;;;;;;;48.10;17.10;;;;;;5009714;28;20392;-89
2022/08/02 10:56:48;;;;;;;;;;;48.10;16.50;;;;;;5012052;28;19963;-89
2022/08/02 10:59:31;;;;;;;;;;;48.20;16.90;;;;;;5017067;28;20395;-88
2022/08/02 11:02:01;;;;;;;;;;;48.30;16.90;;;;;;5001175;28;19969;-89
2022/08/02 11:04:30;;;;;;;;;;;48.30;16.40;;;;;;5018365;28;20009;-89
2022/08/02 11:07:17;;;;;;;;;;;48.20;16.30;;;;;;5029924;28;19897;-89
2022/08/02 11:09:45;;;;;;;;;;;48.20;16.40;;;;;;5016137;28;19921;-89
2022/08/02 11:12:12;;;;;;;;;;;48.00;16.50;;;;;;5014669;28;19929;-88
2022/08/02 11:14:41;;;;;;;;;;;48.00;16.80;;;;;;4997384;28;20479;-89
2022/08/02 11:17:17;;;;;;;;;;;48.20;16.80;;;;;;5006935;28;19913;-88
2022/08/02 11:20:02;;;;;;;;;;;48.20;16.50;;;;;;5011310;28;19922;-89
2022/08/02 11:22:30;;;;;;;;;;;48.50;16.70;;;;;;5001501;28;19918;-89
2022/08/02 11:25:16;;;;;;;;;;;48.70;16.40;;;;;;4999577;28;19949;-89
2022/08/02 11:27:43;;;;;;;;;;;48.70;16.20;;;;;;5000324;28;20004;-89
2022/08/02 11:30:14;;;;;;;;;;;48.90;16.40;;;;;;5016936;28;19921;-89
2022/08/02 11:32:41;;;;;;;;;;;49.20;16.20;;;;;;4992853;28;20451;-90
2022/08/02 11:35:07;;;;;;;;;;;49.30;16.00;;;;;;4995458;28;19988;-89
2022/08/02 11:37:43;;;;;;;;;;;49.30;16.00;;;;;;4999497;28;19921;-86
2022/08/02 11:40:09;;;;;;;;;;;49.00;15.20;;;;;;5020610;28;19959;-88
2022/08/02 11:42:35;;;;;;;;;;;48.50;15.60;;;;;;5009030;28;19910;-89
2022/08/02 11:45:02;;;;;;;;;;;48.40;15.90;;;;;;5001288;28;19905;-89
2022/08/02 11:47:27;;;;;;;;;;;48.20;16.00;;;;;;5010812;28;19990;-89
2022/08/02 11:50:04;;;;;;;;;;;48.00;16.10;;;;;;4995487;28;20004;-89
2022/08/02 11:52:33;;;;;;;;;;;47.70;16.20;;;;;;5012988;28;20004;-89
2022/08/02 11:54:59;;;;;;;;;;;47.50;16.10;;;;;;4998169;28;20567;-89
2022/08/02 11:57:26;;;;;;;;;;;47.30;16.30;;;;;;5001905;28;20948;-89
2022/08/02 11:59:54;;;;;;;;;;;47.10;16.40;;;;;;4998196;28;19917;-89
2022/08/02 12:02:25;;;;;;;;;;;46.90;16.60;;;;;;5014911;28;19914;-88
2022/08/02 12:05:02;;;;;;;;;;;46.50;16.90;;;;;;4997150;28;19976;-89
2022/08/02 12:07:32;;;;;;;;;;;46.50;17.20;;;;;;5005212;28;19917;-88
2022/08/02 12:10:01;;;;;;;;;;;46.70;16.80;;;;;;5016491;28;19925;-89
2022/08/02 12:12:27;;;;;;;;;;;46.50;16.70;;;;;;4998776;28;19925;-90
2022/08/02 12:14:53;;;;;;;;;;;46.40;16.90;;;;;;5003865;28;19948;-89
2022/08/02 12:20:08;;;;;;;;;;;45.80;16.80;;;;;;5019985;28;19929;-89
2022/08/02 12:22:36;;;;;;;;;;;45.60;17.20;;;;;;5003377;28;20008;-88
2022/08/02 12:25:14;;;;;;;;;;;45.30;17.20;;;;;;4999844;28;20009;-90
2022/08/02 12:27:42;;;;;;;;;;;44.80;17.20;;;;;;5022819;28;19924;-90
2022/08/02 12:30:09;;;;;;;;;;;44.30;17.70;;;;;;5005524;28;20400;-91
2022/08/02 12:32:36;;;;;;;;;;;43.80;18.10;;;;;;4999422;28;19908;-91
2022/08/02 12:35:03;;;;;;;;;;;43.40;18.30;;;;;;5020032;28;19925;-89
2022/08/02 12:37:28;;;;;;;;;;;43.00;18.50;;;;;;5002597;28;20053;-90
2022/08/02 12:39:54;;;;;;;;;;;42.90;18.80;;;;;;5039604;28;19956;-89
2022/08/02 12:42:19;;;;;;;;;;;42.70;19.00;;;;;;5009334;28;19914;-89
2022/08/02 12:44:52;;;;;;;;;;;42.80;19.10;;;;;;5022370;23;19934;-90
2022/08/02 12:47:20;;;;;;;;;;;43.10;19.00;;;;;;5003815;28;19910;-90
2022/08/02 12:49:46;;;;;;;;;;;43.40;18.90;;;;;;4998091;28;19933;-90
2022/08/02 12:52:21;;;;;;;;;;;43.80;18.80;;;;;;5017071;28;19925;-89
2022/08/02 12:54:47;;;;;;;;;;;44.10;18.70;;;;;;5007236;28;19922;-90
2022/08/02 12:57:15;;;;;;;;;;;44.40;18.60;;;;;;5017552;28;19924;-89
2022/08/02 12:59:41;;;;;;;;;;;44.50;18.30;;;;;;5007338;28;20285;-89
2022/08/02 13:02:09;;;;;;;;;;;44.60;18.10;;;;;;4998321;28;19981;-89
2022/08/02 13:04:35;;;;;;;;;;;44.60;18.10;;;;;;4997382;28;20008;-89
2022/08/02 13:07:01;;;;;;;;;;;44.30;18.00;;;;;;5019133;28;19914;-90
2022/08/02 13:09:27;;;;;;;;;;;44.00;18.30;;;;;;4999737;28;19949;-89
2022/08/02 13:11:53;;;;;;;;;;;44.10;18.40;;;;;;4998859;28;19928;-89
2022/08/02 13:14:18;;;;;;;;;;;44.30;18.40;;;;;;5008660;28;19980;-89
2022/08/02 13:16:44;;;;;;;;;;;44.60;18.40;;;;;;5018015;28;19914;-90
2022/08/02 13:19:12;;;;;;;;;;;44.60;17.90;;;;;;5021280;28;19921;-90
2022/08/02 13:21:37;;;;;;;;;;;44.40;18.10;;;;;;5025376;28;19924;-90
2022/08/02 13:24:04;;;;;;;;;;;44.10;18.30;;;;;;5022686;28;19921;-90
2022/08/02 13:26:30;;;;;;;;;;;43.70;18.40;;;;;;5011155;28;19959;-89
2022/08/02 13:28:56;;;;;;;;;;;43.10;18.30;;;;;;5020507;28;20304;-89
2022/08/02 13:31:22;;;;;;;;;;;42.60;18.70;;;;;;5007666;28;19902;-89
2022/08/02 13:33:48;;;;;;;;;;;42.00;19.00;;;;;;5006534;28;19922;-89
2022/08/02 13:36:14;;;;;;;;;;;41.60;19.50;;;;;;4984938;28;19917;-89
2022/08/02 13:38:40;;;;;;;;;;;41.40;19.70;;;;;;5023882;28;20501;-90
2022/08/02 13:41:09;;;;;;;;;;;41.30;19.80;;;;;;5017632;28;19918;-89
2022/08/02 13:43:35;;;;;;;;;;;41.30;20.00;;;;;;5022999;28;19922;-89
2022/08/02 13:46:03;;;;;;;;;;;41.40;20.00;;;;;;5005505;28;20483;-91
2022/08/02 13:48:30;;;;;;;;;;;41.40;19.70;;;;;;5021913;28;19917;-90
2022/08/02 13:50:57;;;;;;;;;;;41.40;19.80;;;;;;5030552;28;19914;-90
2022/08/02 13:53:23;;;;;;;;;;;41.30;19.80;;;;;;5004321;28;19913;-89
2022/08/02 13:55:49;;;;;;;;;;;41.30;20.00;;;;;;5020630;28;19920;-89
2022/08/02 13:58:15;;;;;;;;;;;41.30;20.00;;;;;;5016891;28;19901;-89
2022/08/02 14:00:41;;;;;;;;;;;41.20;19.90;;;;;;5007945;28;19916;-89
2022/08/02 14:03:07;;;;;;;;;;;40.90;20.00;;;;;;4985312;28;20018;-90
2022/08/02 14:05:37;;;;;;;;;;;40.80;20.40;;;;;;5020580;28;19964;-90
2022/08/02 14:08:03;;;;;;;;;;;40.70;20.50;;;;;;5016927;28;20000;-89
2022/08/02 14:12:57;;;;;;;;;;;40.30;20.40;;;;;;4964274;23;19916;-91
2022/08/02 14:15:23;;;;;;;;;;;40.10;20.50;;;;;;4980807;28;20200;-90
2022/08/02 14:17:49;;;;;;;;;;;39.80;20.80;;;;;;4988551;28;19976;-90
2022/08/02 14:20:14;;;;;;;;;;;39.60;21.00;;;;;;4998206;28;19918;-90
2022/08/02 14:22:40;;;;;;;;;;;39.40;21.20;;;;;;4998595;28;19960;-91
2022/08/02 14:25:06;;;;;;;;;;;39.20;21.40;;;;;;5001564;28;19917;-91
2022/08/02 14:27:32;;;;;;;;;;;38.90;21.60;;;;;;5006863;28;19934;-91
2022/08/02 14:29:58;;;;;;;;;;;38.70;21.80;;;;;;4982087;28;19914;-90
2022/08/02 14:32:24;;;;;;;;;;;38.30;21.90;;;;;;4977667;28;19934;-90
2022/08/02 14:34:50;;;;;;;;;;;38.00;22.30;;;;;;4997950;28;19967;-91
2022/08/02 14:37:15;;;;;;;;;;;37.70;22.60;;;;;;4986274;28;19957;-91